Time;durP1;ratioP1;P1;durP2;ratioP2;P2;SDS_P1;SDS_P2;PMS_P1;PMS_P2;Temp;Humidity;BMP_temperature;BMP_pressure;BME280_temperature;BME280_humidity;BME280_pressure;Samples;Min_cycle;Max_cycle;Signal;HPM_P1;HPM_P2
2022/11/29 00:00:09;;;;;;;4.80;4.30;;;7.10;99.90;;;;;;497225;239;27570;-65
2022/11/29 00:02:10;;;;;;;5.60;3.97;;;7.10;99.90;;;;;;497171;239;29854;-68
2022/11/29 00:04:11;;;;;;;6.57;4.80;;;7.10;99.90;;;;;;497214;239;27464;-65
2022/11/29 00:06:13;;;;;;;5.57;4.50;;;7.10;99.90;;;;;;497210;239;27517;-66
2022/11/29 00:08:14;;;;;;;6.60;4.10;;;7.10;99.90;;;;;;497202;239;28694;-65
2022/11/29 00:10:15;;;;;;;5.97;4.60;;;7.10;99.90;;;;;;497243;238;28349;-65
2022/11/29 00:12:17;;;;;;;6.20;4.70;;;7.10;99.90;;;;;;497262;239;28521;-68
2022/11/29 00:14:18;;;;;;;5.45;4.07;;;7.10;99.90;;;;;;497248;239;29207;-66
2022/11/29 00:16:19;;;;;;;4.35;3.85;;;7.10;99.90;;;;;;497223;239;27505;-66
2022/11/29 00:18:20;;;;;;;6.70;3.80;;;7.10;99.90;;;;;;497219;239;27568;-66
2022/11/29 00:20:21;;;;;;;4.32;3.92;;;7.10;99.90;;;;;;497205;239;27476;-65
2022/11/29 00:22:24;;;;;;;6.10;4.50;;;7.10;99.90;;;;;;497245;239;28000;-68
2022/11/29 00:24:24;;;;;;;4.72;3.90;;;7.10;99.90;;;;;;497207;239;27989;-66
2022/11/29 00:26:25;;;;;;;5.82;4.00;;;7.10;99.90;;;;;;497223;239;27992;-66
2022/11/29 00:28:27;;;;;;;5.15;4.18;;;7.10;99.90;;;;;;497179;239;27437;-65
2022/11/29 00:30:28;;;;;;;5.10;3.80;;;7.10;99.90;;;;;;497227;239;28002;-66
2022/11/29 00:32:29;;;;;;;4.30;3.73;;;7.10;99.90;;;;;;497241;239;27477;-68
2022/11/29 00:34:30;;;;;;;5.77;4.60;;;7.10;99.90;;;;;;497165;239;28941;-66
2022/11/29 00:36:32;;;;;;;3.85;3.55;;;7.10;99.90;;;;;;497204;239;29319;-66
2022/11/29 00:38:33;;;;;;;5.78;4.10;;;7.10;99.90;;;;;;497180;239;28021;-66
2022/11/29 00:40:34;;;;;;;4.43;3.60;;;7.10;99.90;;;;;;497221;239;27468;-65
2022/11/29 00:42:35;;;;;;;5.35;4.55;;;7.10;99.90;;;;;;497225;239;28833;-68
2022/11/29 00:44:37;;;;;;;5.27;3.83;;;7.10;99.90;;;;;;497233;239;27464;-65
2022/11/29 00:46:38;;;;;;;4.10;3.55;;;7.10;99.90;;;;;;497203;239;28431;-66
2022/11/29 00:48:39;;;;;;;4.03;3.62;;;7.10;99.90;;;;;;497208;239;27464;-65
2022/11/29 00:50:40;;;;;;;5.60;3.83;;;7.10;99.90;;;;;;497226;239;27485;-66
2022/11/29 00:52:42;;;;;;;3.65;3.35;;;7.20;99.90;;;;;;497225;239;27981;-69
2022/11/29 00:54:43;;;;;;;4.32;3.55;;;7.10;99.90;;;;;;497226;239;28212;-65
2022/11/29 00:56:44;;;;;;;3.80;3.40;;;7.10;99.90;;;;;;497215;239;27590;-66
2022/11/29 00:58:47;;;;;;;5.20;4.00;;;7.10;99.90;;;;;;497214;239;27567;-66
2022/11/29 01:00:47;;;;;;;4.57;3.60;;;7.10;99.90;;;;;;497121;239;27485;-66
2022/11/29 01:02:48;;;;;;;3.95;3.55;;;7.10;99.90;;;;;;497243;239;28717;-69
2022/11/29 01:04:49;;;;;;;4.43;3.40;;;7.10;99.90;;;;;;497222;239;27475;-66
2022/11/29 01:06:51;;;;;;;3.90;3.50;;;7.10;99.90;;;;;;497221;239;28124;-66
2022/11/29 01:08:52;;;;;;;4.25;3.70;;;7.10;99.90;;;;;;497198;239;27978;-65
2022/11/29 01:10:53;;;;;;;4.20;3.60;;;7.10;99.90;;;;;;497207;239;27550;-65
2022/11/29 01:12:55;;;;;;;4.20;3.80;;;7.10;99.90;;;;;;497237;239;28813;-68
2022/11/29 01:14:56;;;;;;;4.07;3.53;;;7.10;99.90;;;;;;497222;239;27441;-66
2022/11/29 01:16:57;;;;;;;3.70;3.35;;;7.10;99.90;;;;;;497204;239;27635;-65
2022/11/29 01:18:59;;;;;;;4.77;3.93;;;7.10;99.90;;;;;;497203;239;27542;-65
2022/11/29 01:20:59;;;;;;;4.83;4.10;;;7.10;99.90;;;;;;497210;239;28575;-66
2022/11/29 01:23:01;;;;;;;4.90;3.92;;;7.10;99.90;;;;;;497246;239;28801;-69
2022/11/29 01:25:02;;;;;;;5.40;3.83;;;7.10;99.90;;;;;;497232;239;28001;-65
2022/11/29 01:27:03;;;;;;;4.32;3.92;;;7.10;99.90;;;;;;497205;239;29276;-66
2022/11/29 01:29:04;;;;;;;4.37;3.90;;;7.20;99.90;;;;;;497192;239;27448;-65
2022/11/29 01:31:06;;;;;;;3.80;3.45;;;7.10;99.90;;;;;;497243;239;27456;-65
2022/11/29 01:33:07;;;;;;;5.07;3.92;;;7.10;99.90;;;;;;497242;239;27492;-68
2022/11/29 01:35:08;;;;;;;4.55;3.58;;;7.10;99.90;;;;;;497224;239;27548;-65
2022/11/29 01:37:09;;;;;;;4.80;3.40;;;7.10;99.90;;;;;;497180;239;27552;-65
2022/11/29 01:39:11;;;;;;;4.30;3.90;;;7.10;99.90;;;;;;497182;239;27585;-67
2022/11/29 01:41:12;;;;;;;3.83;3.47;;;7.10;99.90;;;;;;497223;239;29209;-66
2022/11/29 01:43:13;;;;;;;3.97;3.55;;;7.10;99.90;;;;;;497244;239;27977;-67
2022/11/29 01:45:14;;;;;;;4.20;3.80;;;7.10;99.90;;;;;;497190;239;27515;-65
2022/11/29 01:47:16;;;;;;;3.75;3.45;;;7.10;99.90;;;;;;497187;239;27472;-66
2022/11/29 01:49:17;;;;;;;4.35;3.58;;;7.10;99.90;;;;;;497195;239;27464;-65
2022/11/29 01:51:18;;;;;;;3.97;3.58;;;7.20;99.90;;;;;;497231;239;27528;-66
2022/11/29 01:53:20;;;;;;;3.53;3.22;;;7.10;99.90;;;;;;497242;239;27591;-67
2022/11/29 01:55:21;;;;;;;3.80;3.50;;;7.10;99.90;;;;;;497214;239;27922;-65
2022/11/29 01:57:22;;;;;;;5.10;3.80;;;7.10;99.90;;;;;;497197;239;27570;-65
2022/11/29 01:59:23;;;;;;;3.72;3.20;;;7.10;99.90;;;;;;497209;239;27495;-65
2022/11/29 02:01:25;;;;;;;4.40;3.30;;;7.10;99.90;;;;;;497226;239;27449;-65
2022/11/29 02:03:26;;;;;;;3.78;3.47;;;7.10;99.90;;;;;;497221;239;27481;-66
2022/11/29 02:05:27;;;;;;;3.50;3.20;;;7.20;99.90;;;;;;497213;239;27449;-65
2022/11/29 02:07:28;;;;;;;4.00;3.60;;;7.10;99.90;;;;;;497167;239;27966;-65
2022/11/29 02:09:30;;;;;;;4.20;3.40;;;7.10;99.90;;;;;;497262;239;27970;-68
2022/11/29 02:11:31;;;;;;;3.80;3.42;;;7.10;99.90;;;;;;497207;239;29275;-66
2022/11/29 02:13:32;;;;;;;3.58;3.28;;;7.10;99.90;;;;;;497204;239;27546;-66
2022/11/29 02:15:33;;;;;;;3.45;3.08;;;7.10;99.90;;;;;;497202;239;27440;-65
2022/11/29 02:17:35;;;;;;;3.75;3.30;;;7.10;99.90;;;;;;497204;239;27560;-66
2022/11/29 02:19:36;;;;;;;3.25;2.97;;;7.10;99.90;;;;;;497226;239;27480;-69
2022/11/29 02:21:37;;;;;;;3.40;3.10;;;7.10;99.90;;;;;;497219;239;27947;-65
2022/11/29 02:23:38;;;;;;;4.40;3.60;;;7.10;99.90;;;;;;497182;239;27955;-65
2022/11/29 02:25:40;;;;;;;3.25;2.97;;;7.10;99.90;;;;;;497185;239;27461;-65
2022/11/29 02:27:41;;;;;;;3.20;2.90;;;7.10;99.90;;;;;;497163;239;27484;-65
2022/11/29 02:29:42;;;;;;;3.05;2.85;;;7.10;99.90;;;;;;497218;239;27577;-67
2022/11/29 02:31:43;;;;;;;3.55;3.22;;;7.10;99.90;;;;;;497210;239;27536;-68
2022/11/29 02:33:45;;;;;;;3.30;3.05;;;7.10;99.90;;;;;;497211;239;27599;-66
2022/11/29 02:35:46;;;;;;;3.20;2.90;;;7.10;99.90;;;;;;497160;239;27876;-66
2022/11/29 02:37:47;;;;;;;3.35;3.05;;;7.10;99.90;;;;;;497198;239;27984;-65
2022/11/29 02:39:48;;;;;;;3.10;2.80;;;7.10;99.90;;;;;;497245;239;27492;-68
2022/11/29 02:41:50;;;;;;;2.92;2.72;;;7.10;99.90;;;;;;497220;239;27452;-66
2022/11/29 02:43:51;;;;;;;3.40;3.10;;;7.10;99.90;;;;;;497186;239;27527;-66
2022/11/29 02:45:52;;;;;;;3.40;3.10;;;7.10;99.90;;;;;;497190;239;27460;-65
2022/11/29 02:47:53;;;;;;;3.17;2.87;;;7.10;99.90;;;;;;497216;239;28201;-66
2022/11/29 02:49:55;;;;;;;3.37;2.95;;;7.20;99.90;;;;;;497226;239;28030;-68
2022/11/29 02:51:56;;;;;;;3.13;2.83;;;7.20;99.90;;;;;;497225;239;27927;-66
2022/11/29 02:53:57;;;;;;;3.08;2.83;;;7.10;99.90;;;;;;497191;239;28815;-65
2022/11/29 02:55:59;;;;;;;2.83;2.62;;;7.10;99.90;;;;;;497206;239;27455;-65
2022/11/29 02:58:00;;;;;;;3.50;3.20;;;7.20;99.90;;;;;;497237;239;27537;-66
2022/11/29 03:00:01;;;;;;;3.78;3.40;;;7.10;99.90;;;;;;497248;239;27500;-67
2022/11/29 03:02:02;;;;;;;3.35;3.05;;;7.10;99.90;;;;;;497248;239;27555;-65
2022/11/29 03:04:04;;;;;;;3.92;3.35;;;7.10;99.90;;;;;;497313;239;27485;-65
2022/11/29 03:06:05;;;;;;;3.40;3.10;;;7.10;99.90;;;;;;497376;239;28043;-66
2022/11/29 03:08:06;;;;;;;3.42;3.12;;;7.10;99.90;;;;;;497423;239;27457;-66
2022/11/29 03:10:07;;;;;;;3.33;3.03;;;7.10;99.90;;;;;;497379;239;27492;-67
2022/11/29 03:12:09;;;;;;;4.70;3.70;;;7.10;99.90;;;;;;497306;239;27532;-65
2022/11/29 03:14:10;;;;;;;4.37;3.47;;;7.10;99.90;;;;;;497221;239;27499;-66
2022/11/29 03:16:11;;;;;;;3.40;3.10;;;7.10;99.90;;;;;;497219;239;27862;-65
2022/11/29 03:18:12;;;;;;;4.50;3.70;;;7.10;99.90;;;;;;497225;239;27900;-66
2022/11/29 03:20:14;;;;;;;3.40;3.10;;;7.10;99.90;;;;;;497213;239;27939;-66
2022/11/29 03:22:15;;;;;;;3.65;3.25;;;7.10;99.90;;;;;;497221;239;27539;-65
2022/11/29 03:24:16;;;;;;;3.75;3.45;;;7.10;99.90;;;;;;497189;239;27573;-66
2022/11/29 03:26:17;;;;;;;4.00;3.67;;;7.10;99.90;;;;;;497220;239;27590;-68
2022/11/29 03:28:19;;;;;;;3.50;3.20;;;7.10;99.90;;;;;;497236;239;27575;-66
2022/11/29 03:30:20;;;;;;;3.12;2.83;;;7.10;99.90;;;;;;497089;239;27484;-66
2022/11/29 03:32:21;;;;;;;4.25;3.28;;;7.10;99.90;;;;;;497186;239;28853;-65
2022/11/29 03:34:22;;;;;;;3.70;3.40;;;7.10;99.90;;;;;;497175;239;27992;-66
2022/11/29 03:36:24;;;;;;;3.65;3.35;;;7.10;99.90;;;;;;497216;239;27507;-68
2022/11/29 03:38:25;;;;;;;2.90;2.70;;;7.10;99.90;;;;;;497209;239;27460;-65
2022/11/29 03:40:26;;;;;;;5.90;3.70;;;7.10;99.90;;;;;;497204;239;27489;-66
2022/11/29 03:42:27;;;;;;;4.05;3.65;;;7.10;99.90;;;;;;497180;239;27531;-65
2022/11/29 03:44:29;;;;;;;4.00;3.62;;;7.10;99.90;;;;;;497192;239;27913;-66
2022/11/29 03:46:30;;;;;;;3.97;3.58;;;7.10;99.90;;;;;;497234;239;27864;-68
2022/11/29 03:48:31;;;;;;;3.90;3.50;;;7.10;99.90;;;;;;497243;239;27471;-66
2022/11/29 03:50:32;;;;;;;4.10;3.70;;;7.10;99.90;;;;;;497235;239;27514;-66
2022/11/29 03:52:34;;;;;;;6.22;4.15;;;7.10;99.90;;;;;;497230;239;27448;-65
2022/11/29 03:54:35;;;;;;;3.92;3.55;;;7.10;99.90;;;;;;497258;239;27527;-66
2022/11/29 03:56:36;;;;;;;4.10;3.70;;;7.10;99.90;;;;;;497200;239;27509;-66
2022/11/29 03:58:38;;;;;;;4.12;3.72;;;7.10;99.90;;;;;;497249;239;27912;-66
2022/11/29 04:00:39;;;;;;;6.47;4.70;;;7.10;99.90;;;;;;497230;239;28010;-66
2022/11/29 04:02:40;;;;;;;4.85;4.32;;;7.10;99.90;;;;;;497219;239;27475;-66
2022/11/29 04:04:41;;;;;;;4.45;3.90;;;7.00;99.90;;;;;;497264;239;27384;-65
2022/11/29 04:06:43;;;;;;;5.20;4.70;;;7.00;99.90;;;;;;497235;239;27517;-66
2022/11/29 04:08:44;;;;;;;5.03;4.53;;;7.00;99.90;;;;;;497238;238;27539;-66
2022/11/29 04:10:46;;;;;;;6.05;5.20;;;7.00;99.90;;;;;;497228;239;27480;-66
2022/11/29 04:12:46;;;;;;;5.60;4.90;;;7.00;99.90;;;;;;496840;239;28780;-65
2022/11/29 04:14:48;;;;;;;5.32;4.60;;;7.00;99.90;;;;;;497252;239;28023;-66
2022/11/29 04:16:49;;;;;;;7.00;5.80;;;7.00;99.90;;;;;;497231;239;27571;-68
2022/11/29 04:18:50;;;;;;;5.87;4.87;;;6.90;99.90;;;;;;497226;239;27444;-66
2022/11/29 04:20:51;;;;;;;6.07;5.07;;;6.90;99.90;;;;;;497215;239;27527;-66
2022/11/29 04:22:53;;;;;;;6.18;5.18;;;7.00;99.90;;;;;;497217;239;27471;-68
2022/11/29 04:24:54;;;;;;;6.80;5.80;;;6.90;99.90;;;;;;497220;239;27474;-65
2022/11/29 04:26:55;;;;;;;6.85;6.10;;;6.90;99.90;;;;;;497207;239;27576;-65
2022/11/29 04:28:56;;;;;;;6.18;5.57;;;6.90;99.90;;;;;;497252;239;27889;-66
2022/11/29 04:30:58;;;;;;;7.07;5.60;;;7.00;99.90;;;;;;497219;239;28064;-66
2022/11/29 04:32:59;;;;;;;6.68;5.32;;;7.00;99.90;;;;;;497260;239;27501;-66
2022/11/29 04:35:00;;;;;;;5.72;5.15;;;7.00;99.90;;;;;;497216;239;27552;-65
2022/11/29 04:37:01;;;;;;;5.62;4.90;;;7.00;99.90;;;;;;497214;239;27581;-67
2022/11/29 04:39:03;;;;;;;6.10;5.22;;;7.00;99.90;;;;;;497228;239;27465;-65
2022/11/29 04:41:04;;;;;;;4.78;4.32;;;7.00;99.90;;;;;;497141;239;27506;-65
2022/11/29 04:43:05;;;;;;;4.50;4.10;;;7.10;99.90;;;;;;497231;239;28257;-69
2022/11/29 04:45:06;;;;;;;4.70;4.20;;;7.00;99.90;;;;;;497229;239;27801;-66
2022/11/29 04:47:08;;;;;;;4.45;4.05;;;7.10;99.90;;;;;;497237;239;27527;-65
2022/11/29 04:49:09;;;;;;;4.43;3.92;;;7.10;99.90;;;;;;497225;239;27528;-65
2022/11/29 04:51:10;;;;;;;4.20;3.80;;;7.10;99.90;;;;;;497220;239;27510;-65
2022/11/29 04:53:11;;;;;;;4.43;4.00;;;7.10;99.90;;;;;;497244;239;27591;-68
2022/11/29 04:55:13;;;;;;;4.85;4.35;;;7.00;99.90;;;;;;497234;239;27460;-65
2022/11/29 04:57:14;;;;;;;4.15;3.75;;;7.00;99.90;;;;;;496961;239;27978;-66
2022/11/29 04:59:15;;;;;;;5.43;4.45;;;7.00;99.90;;;;;;497225;239;27904;-66
2022/11/29 05:01:17;;;;;;;5.05;4.43;;;7.00;99.90;;;;;;497201;239;27465;-66
2022/11/29 05:03:18;;;;;;;6.43;4.80;;;7.00;99.90;;;;;;497238;239;27476;-68
2022/11/29 05:05:19;;;;;;;6.62;5.60;;;7.00;99.90;;;;;;497221;239;27453;-65
2022/11/29 05:07:20;;;;;;;7.45;6.10;;;7.00;99.90;;;;;;497218;239;27500;-66
2022/11/29 05:09:22;;;;;;;6.95;5.87;;;6.90;99.90;;;;;;497200;239;27477;-65
2022/11/29 05:11:23;;;;;;;6.53;5.53;;;6.90;99.90;;;;;;497204;239;27944;-66
2022/11/29 05:13:24;;;;;;;7.62;5.40;;;6.90;99.90;;;;;;497230;239;28172;-68
2022/11/29 05:15:25;;;;;;;6.75;5.72;;;6.90;99.90;;;;;;497233;239;27437;-67
2022/11/29 05:17:27;;;;;;;5.90;5.30;;;6.90;99.90;;;;;;497214;239;27492;-67
2022/11/29 05:19:28;;;;;;;5.70;5.18;;;6.90;99.90;;;;;;497188;239;27462;-65
2022/11/29 05:21:29;;;;;;;5.40;4.78;;;6.90;99.90;;;;;;497176;239;27491;-65
2022/11/29 05:23:30;;;;;;;4.75;4.28;;;6.80;99.90;;;;;;497224;239;27528;-70
2022/11/29 05:25:32;;;;;;;6.20;4.70;;;6.80;99.90;;;;;;497216;239;28059;-66
2022/11/29 05:27:33;;;;;;;4.85;4.45;;;6.80;99.90;;;;;;497170;239;28030;-68
2022/11/29 05:29:34;;;;;;;4.30;3.90;;;6.80;99.90;;;;;;497152;239;27520;-66
2022/11/29 05:31:35;;;;;;;5.03;4.53;;;6.80;99.90;;;;;;497188;239;27559;-65
2022/11/29 05:33:37;;;;;;;4.57;3.92;;;6.80;99.90;;;;;;497217;239;27594;-67
2022/11/29 05:35:38;;;;;;;4.00;3.60;;;6.80;99.90;;;;;;497212;239;27451;-65
2022/11/29 05:37:39;;;;;;;4.40;4.00;;;6.70;99.90;;;;;;496993;239;27483;-66
2022/11/29 05:39:41;;;;;;;4.37;3.97;;;6.70;99.90;;;;;;497241;239;29180;-65
2022/11/29 05:41:42;;;;;;;3.95;3.65;;;6.70;99.90;;;;;;497231;239;27950;-66
2022/11/29 05:43:43;;;;;;;4.12;3.75;;;6.70;99.90;;;;;;497251;238;27397;-67
2022/11/29 05:45:44;;;;;;;3.72;3.42;;;6.70;99.90;;;;;;497241;239;27534;-66
2022/11/29 05:47:45;;;;;;;4.68;3.35;;;6.70;99.90;;;;;;497192;239;27496;-66
2022/11/29 05:49:47;;;;;;;4.00;3.70;;;6.70;99.90;;;;;;497191;239;27496;-65
2022/11/29 05:51:48;;;;;;;3.70;3.40;;;6.70;99.90;;;;;;497212;239;27492;-65
2022/11/29 05:53:49;;;;;;;4.60;4.20;;;6.70;99.90;;;;;;497224;239;27509;-67
2022/11/29 05:55:50;;;;;;;4.65;3.75;;;6.70;99.90;;;;;;497200;239;28010;-65
2022/11/29 05:57:52;;;;;;;3.72;3.35;;;6.70;99.90;;;;;;497234;239;28054;-66
2022/11/29 05:59:53;;;;;;;4.62;4.07;;;6.70;99.90;;;;;;497194;239;27441;-65
2022/11/29 06:01:55;;;;;;;3.60;3.30;;;6.70;99.90;;;;;;497216;239;27575;-65
2022/11/29 06:03:56;;;;;;;5.22;4.68;;;6.70;99.90;;;;;;497223;239;27493;-66
2022/11/29 06:05:59;;;;;;;5.10;4.05;;;6.70;99.90;;;;;;497196;239;27543;-66
2022/11/29 06:07:58;;;;;;;5.57;3.97;;;6.70;99.90;;;;;;497048;239;27618;-67
2022/11/29 06:10:00;;;;;;;4.40;4.00;;;6.70;99.90;;;;;;497136;239;28687;-65
2022/11/29 06:12:01;;;;;;;4.55;4.15;;;6.70;99.90;;;;;;497226;239;27916;-66
2022/11/29 06:14:04;;;;;;;4.65;4.25;;;6.70;99.90;;;;;;497228;239;27499;-66
2022/11/29 06:16:03;;;;;;;4.05;3.62;;;6.70;99.90;;;;;;497107;239;27601;-66
2022/11/29 06:18:05;;;;;;;4.25;3.85;;;6.70;99.90;;;;;;497211;239;27534;-66
2022/11/29 06:20:09;;;;;;;4.40;3.83;;;6.70;99.90;;;;;;497194;239;27524;-65
2022/11/29 06:22:07;;;;;;;4.35;3.95;;;6.60;99.90;;;;;;496985;239;27442;-66
2022/11/29 06:24:08;;;;;;;3.85;3.55;;;6.60;99.90;;;;;;497229;239;28593;-67
2022/11/29 06:26:09;;;;;;;4.32;3.90;;;6.60;99.90;;;;;;497220;239;27887;-66
2022/11/29 06:28:11;;;;;;;4.50;4.10;;;6.70;99.90;;;;;;497194;239;27495;-65
2022/11/29 06:30:12;;;;;;;4.45;4.05;;;6.70;99.90;;;;;;497230;239;27617;-65
2022/11/29 06:32:13;;;;;;;6.60;4.93;;;6.70;99.90;;;;;;497229;239;27441;-66
2022/11/29 06:34:14;;;;;;;5.75;4.53;;;6.70;99.90;;;;;;497209;239;27494;-67
2022/11/29 06:36:16;;;;;;;5.05;4.55;;;6.70;99.90;;;;;;497224;239;27464;-66
2022/11/29 06:38:17;;;;;;;5.22;4.60;;;6.70;99.90;;;;;;497182;239;27967;-67
2022/11/29 06:40:18;;;;;;;5.68;5.07;;;6.70;99.90;;;;;;497212;239;28137;-65
2022/11/29 06:42:19;;;;;;;5.90;4.60;;;6.70;99.90;;;;;;497228;239;27445;-66
2022/11/29 06:44:21;;;;;;;6.00;4.97;;;6.60;99.90;;;;;;497196;239;27616;-67
2022/11/29 06:46:22;;;;;;;6.20;5.20;;;6.60;99.90;;;;;;497208;239;27613;-63
2022/11/29 06:48:23;;;;;;;8.52;5.68;;;6.60;99.90;;;;;;497158;239;27629;-66
2022/11/29 06:50:24;;;;;;;8.50;6.00;;;6.60;99.90;;;;;;497217;239;27599;-69
2022/11/29 06:52:26;;;;;;;6.55;5.20;;;6.60;99.90;;;;;;497210;239;27454;-66
2022/11/29 06:54:27;;;;;;;9.82;6.43;;;6.60;99.90;;;;;;497204;239;28055;-67
2022/11/29 06:56:28;;;;;;;8.20;6.65;;;6.60;99.90;;;;;;497163;239;28051;-66
2022/11/29 06:58:31;;;;;;;9.88;7.18;;;6.60;99.90;;;;;;497203;239;27555;-65
2022/11/29 07:00:31;;;;;;;6.75;6.05;;;6.60;99.90;;;;;;497073;239;27512;-67
2022/11/29 07:02:32;;;;;;;6.72;5.90;;;6.60;99.90;;;;;;497039;239;27487;-66
2022/11/29 07:04:33;;;;;;;7.90;6.07;;;6.60;99.90;;;;;;495992;239;27516;-65
2022/11/29 07:06:34;;;;;;;9.48;6.60;;;6.60;99.90;;;;;;495621;239;27511;-66
2022/11/29 07:08:36;;;;;;;8.13;6.65;;;6.60;99.90;;;;;;496354;239;27444;-65
2022/11/29 07:10:37;;;;;;;8.32;6.62;;;6.60;99.90;;;;;;497189;239;28006;-67
2022/11/29 07:12:38;;;;;;;7.45;5.65;;;6.60;99.90;;;;;;497214;239;27900;-64
2022/11/29 07:14:40;;;;;;;7.05;5.78;;;6.60;99.90;;;;;;497203;239;27489;-64
2022/11/29 07:16:41;;;;;;;8.82;7.40;;;6.60;99.90;;;;;;497194;239;27605;-64
2022/11/29 07:18:42;;;;;;;10.32;7.97;;;6.60;99.90;;;;;;497243;239;27477;-64
2022/11/29 07:20:43;;;;;;;13.57;8.93;;;6.50;99.90;;;;;;497300;239;27492;-67
2022/11/29 07:22:45;;;;;;;11.50;8.30;;;6.50;99.90;;;;;;497285;239;27472;-66
2022/11/29 07:24:46;;;;;;;10.05;8.00;;;6.50;99.90;;;;;;497212;239;27628;-64
2022/11/29 07:26:47;;;;;;;8.45;7.25;;;6.60;99.90;;;;;;497233;239;28637;-64
2022/11/29 07:28:48;;;;;;;10.52;7.18;;;6.60;99.90;;;;;;497231;239;27373;-65
2022/11/29 07:30:50;;;;;;;9.38;6.70;;;6.60;99.90;;;;;;497235;239;27490;-67
2022/11/29 07:32:51;;;;;;;8.10;6.12;;;6.70;99.90;;;;;;497236;239;27460;-65
2022/11/29 07:34:52;;;;;;;7.18;6.43;;;6.70;99.90;;;;;;497207;239;27532;-66
2022/11/29 07:36:53;;;;;;;7.20;5.90;;;6.70;99.90;;;;;;497200;239;27879;-65
2022/11/29 07:38:55;;;;;;;6.15;5.55;;;6.70;99.90;;;;;;497257;239;27476;-65
2022/11/29 07:40:56;;;;;;;6.70;5.90;;;6.70;99.90;;;;;;497256;239;28017;-65
2022/11/29 07:42:57;;;;;;;6.53;5.37;;;6.70;99.90;;;;;;497236;239;27910;-64
2022/11/29 07:44:59;;;;;;;6.75;5.68;;;6.70;99.90;;;;;;497218;239;27487;-64
2022/11/29 07:47:00;;;;;;;5.40;4.90;;;6.70;99.90;;;;;;497220;239;27513;-66
2022/11/29 07:49:01;;;;;;;5.25;4.75;;;6.70;99.90;;;;;;497171;239;27452;-67
2022/11/29 07:51:02;;;;;;;9.23;5.43;;;6.70;99.90;;;;;;497220;239;27503;-67
2022/11/29 07:53:03;;;;;;;5.35;4.62;;;6.70;99.90;;;;;;497211;239;27535;-65
2022/11/29 07:55:05;;;;;;;4.68;4.20;;;6.70;99.90;;;;;;497233;239;28066;-64
2022/11/29 07:57:06;;;;;;;6.45;5.25;;;6.70;99.90;;;;;;497254;239;28053;-64
2022/11/29 07:59:11;;;;;;;5.72;5.12;;;6.70;99.90;;;;;;497285;239;27437;-64
2022/11/29 08:01:08;;;;;;;5.10;4.62;;;6.70;99.90;;;;;;496991;239;27564;-66
2022/11/29 08:03:10;;;;;;;5.35;4.53;;;6.70;99.90;;;;;;497232;239;27575;-65
2022/11/29 08:05:11;;;;;;;5.43;4.65;;;6.70;99.90;;;;;;497189;239;27597;-67
2022/11/29 08:07:12;;;;;;;4.95;4.45;;;6.80;99.90;;;;;;497282;239;27524;-67
2022/11/29 08:09:13;;;;;;;5.80;4.80;;;6.80;99.90;;;;;;497240;239;27970;-64
2022/11/29 08:11:15;;;;;;;8.18;5.90;;;6.80;99.90;;;;;;497232;239;28018;-67
2022/11/29 08:13:16;;;;;;;7.87;5.93;;;6.70;99.90;;;;;;497224;239;27464;-64
2022/11/29 08:15:17;;;;;;;7.65;5.68;;;6.80;99.90;;;;;;497206;238;27477;-66
2022/11/29 08:17:18;;;;;;;8.05;5.87;;;6.80;99.90;;;;;;497253;239;27607;-67
2022/11/29 08:19:20;;;;;;;6.37;5.62;;;6.80;99.90;;;;;;497234;239;27464;-65
2022/11/29 08:21:21;;;;;;;8.93;6.65;;;6.90;99.90;;;;;;497227;239;27521;-66
2022/11/29 08:23:22;;;;;;;8.18;6.20;;;6.90;99.90;;;;;;497193;239;27491;-66
2022/11/29 08:25:24;;;;;;;7.72;6.00;;;6.90;99.90;;;;;;497214;239;27889;-66
2022/11/29 08:27:25;;;;;;;10.18;6.05;;;7.00;99.90;;;;;;497213;239;27511;-68
2022/11/29 08:29:26;;;;;;;7.50;6.18;;;6.90;99.90;;;;;;497182;239;27457;-66
2022/11/29 08:31:27;;;;;;;7.97;6.30;;;7.00;99.90;;;;;;497189;239;27511;-66
2022/11/29 08:33:29;;;;;;;9.15;6.00;;;7.00;99.90;;;;;;497156;239;27460;-65
2022/11/29 08:35:30;;;;;;;7.72;5.80;;;7.00;99.90;;;;;;497175;239;27536;-67
2022/11/29 08:37:31;;;;;;;7.55;5.82;;;7.00;99.90;;;;;;497227;239;28038;-67
2022/11/29 08:39:32;;;;;;;6.00;5.40;;;7.10;99.90;;;;;;497234;239;27955;-64
2022/11/29 08:41:34;;;;;;;7.05;5.95;;;7.00;99.90;;;;;;497210;239;27392;-68
2022/11/29 08:43:35;;;;;;;8.48;6.00;;;7.10;99.90;;;;;;497203;239;27436;-66
2022/11/29 08:45:36;;;;;;;5.93;5.32;;;7.00;99.90;;;;;;497229;239;27495;-66
2022/11/29 08:47:37;;;;;;;6.43;5.78;;;7.10;99.90;;;;;;497238;239;27600;-68
2022/11/29 08:54:17;;;;;;;10.68;5.85;;;7.10;99.90;;;;;;497205;238;29785;-64
2022/11/29 08:56:19;;;;;;;7.45;5.00;;;7.10;99.90;;;;;;497234;239;27565;-64
2022/11/29 08:58:20;;;;;;;7.87;5.22;;;7.20;99.90;;;;;;497205;239;27575;-67
2022/11/29 09:00:21;;;;;;;7.07;5.00;;;7.20;99.90;;;;;;497216;239;27444;-65
2022/11/29 09:02:22;;;;;;;7.12;5.37;;;7.20;99.90;;;;;;497201;239;27507;-66
2022/11/29 09:04:24;;;;;;;6.00;5.30;;;7.30;99.90;;;;;;497238;239;27750;-69
2022/11/29 09:06:25;;;;;;;6.30;5.10;;;7.30;99.90;;;;;;497233;239;29230;-66
2022/11/29 09:08:26;;;;;;;5.97;4.60;;;7.30;99.90;;;;;;497218;239;28054;-66
2022/11/29 09:10:27;;;;;;;7.80;5.50;;;7.30;99.90;;;;;;497228;239;27454;-66
2022/11/29 09:12:29;;;;;;;7.90;5.80;;;7.40;99.90;;;;;;497205;239;28830;-69
2022/11/29 09:14:30;;;;;;;7.07;5.60;;;7.40;99.90;;;;;;497204;239;28802;-66
2022/11/29 09:16:31;;;;;;;9.10;6.17;;;7.40;99.90;;;;;;497234;239;28771;-66
2022/11/29 09:18:32;;;;;;;9.93;6.18;;;7.40;99.90;;;;;;497215;239;28917;-68
2022/11/29 09:20:34;;;;;;;9.43;5.53;;;7.30;99.90;;;;;;497218;239;27577;-66
2022/11/29 09:22:35;;;;;;;8.20;5.40;;;7.50;99.90;;;;;;497209;239;28846;-67
2022/11/29 09:24:36;;;;;;;9.10;5.57;;;7.40;99.90;;;;;;497204;239;27610;-66
2022/11/29 09:26:39;;;;;;;7.50;4.67;;;7.50;99.90;;;;;;497245;239;28401;-66
2022/11/29 09:28:39;;;;;;;9.40;4.90;;;7.60;99.90;;;;;;497161;239;28945;-67
2022/11/29 09:30:40;;;;;;;6.13;5.20;;;7.60;99.90;;;;;;497250;239;28308;-66
2022/11/29 09:32:41;;;;;;;10.47;6.30;;;7.50;99.90;;;;;;497209;239;29259;-67
2022/11/29 09:34:43;;;;;;;12.90;7.77;;;7.40;99.90;;;;;;497254;239;28199;-66
2022/11/29 09:36:44;;;;;;;13.73;8.20;;;7.30;99.90;;;;;;497258;239;27683;-66
2022/11/29 09:38:45;;;;;;;13.40;8.25;;;7.30;99.90;;;;;;497223;239;28031;-67
2022/11/29 09:40:46;;;;;;;13.03;7.63;;;7.40;99.90;;;;;;497216;239;27520;-66
2022/11/29 09:42:47;;;;;;;13.80;7.57;;;7.40;99.90;;;;;;497209;239;27568;-67
2022/11/29 09:44:49;;;;;;;9.20;6.47;;;7.40;99.90;;;;;;497271;239;27632;-69
2022/11/29 09:46:50;;;;;;;15.03;6.47;;;7.50;99.90;;;;;;497245;239;27561;-66
2022/11/29 09:48:51;;;;;;;8.55;5.80;;;7.60;99.90;;;;;;497198;239;27938;-67
2022/11/29 09:50:52;;;;;;;6.73;6.03;;;7.60;99.90;;;;;;497229;239;27966;-66
2022/11/29 09:52:54;;;;;;;8.53;5.83;;;7.60;99.90;;;;;;497202;239;28482;-66
2022/11/29 09:54:55;;;;;;;8.90;5.70;;;7.60;99.90;;;;;;497208;239;29224;-66
2022/11/29 09:56:56;;;;;;;7.60;5.70;;;7.70;99.90;;;;;;497238;239;28357;-66
2022/11/29 09:58:57;;;;;;;7.53;5.17;;;7.80;99.90;;;;;;497248;239;28417;-68
2022/11/29 10:00:59;;;;;;;6.80;5.27;;;7.80;99.90;;;;;;497217;239;28854;-67
2022/11/29 10:03:00;;;;;;;6.97;4.70;;;7.80;99.90;;;;;;497170;239;27961;-67
2022/11/29 10:05:01;;;;;;;8.73;6.00;;;7.70;99.90;;;;;;497189;239;27754;-67
2022/11/29 10:07:02;;;;;;;6.47;5.10;;;7.80;99.90;;;;;;497221;239;27919;-66
2022/11/29 10:09:04;;;;;;;8.83;5.80;;;7.70;99.90;;;;;;497209;239;27973;-69
2022/11/29 10:11:05;;;;;;;8.00;5.30;;;7.70;99.90;;;;;;497224;239;27884;-66
2022/11/29 10:13:07;;;;;;;9.50;5.27;;;7.70;99.90;;;;;;497203;239;27489;-66
2022/11/29 10:15:08;;;;;;;5.70;4.60;;;7.80;99.90;;;;;;497189;239;28005;-66
2022/11/29 10:17:09;;;;;;;9.10;5.77;;;7.90;99.90;;;;;;497208;239;27947;-67
2022/11/29 10:19:10;;;;;;;6.27;5.07;;;7.90;99.90;;;;;;497252;239;27826;-67
2022/11/29 10:21:11;;;;;;;7.83;4.63;;;7.90;99.90;;;;;;497212;239;27929;-66
2022/11/29 10:23:12;;;;;;;7.90;5.40;;;8.00;99.90;;;;;;497179;239;28378;-66
2022/11/29 10:25:14;;;;;;;9.43;5.73;;;8.00;99.90;;;;;;497172;239;28438;-66
2022/11/29 10:27:15;;;;;;;6.80;4.90;;;8.00;99.90;;;;;;497235;239;28411;-67
2022/11/29 10:29:16;;;;;;;9.23;5.40;;;8.00;99.90;;;;;;497203;239;28428;-67
2022/11/29 10:31:17;;;;;;;11.77;6.63;;;7.90;99.90;;;;;;497198;239;28464;-66
2022/11/29 10:33:19;;;;;;;15.00;7.40;;;7.80;99.90;;;;;;497199;239;28407;-66
2022/11/29 10:35:20;;;;;;;18.17;8.23;;;7.70;99.90;;;;;;497209;239;28153;-65
2022/11/29 10:37:21;;;;;;;14.23;7.43;;;7.80;99.90;;;;;;497159;239;28015;-66
2022/11/29 10:39:22;;;;;;;12.03;7.30;;;7.80;99.90;;;;;;497236;239;27737;-67
2022/11/29 10:41:24;;;;;;;13.60;7.23;;;7.90;99.90;;;;;;497203;239;28018;-66